sensor_id;sensor_type;location;lat;lon;timestamp;P1;durP1;ratioP1;P2;durP2;ratioP2
24799;SDS011;12897;50.812;4.430;2023-10-09T00:00:14;7.70;;;4.00;;
24799;SDS011;12897;50.812;4.430;2023-10-09T00:03:01;8.08;;;4.12;;
24799;SDS011;12897;50.812;4.430;2023-10-09T00:05:29;10.45;;;4.20;;
24799;SDS011;12897;50.812;4.430;2023-10-09T00:08:12;7.22;;;3.47;;
24799;SDS011;12897;50.812;4.430;2023-10-09T00:10:45;9.73;;;4.40;;
24799;SDS011;12897;50.812;4.430;2023-10-09T00:13:16;7.12;;;4.10;;
24799;SDS011;12897;50.812;4.430;2023-10-09T00:15:46;7.50;;;4.08;;
24799;SDS011;12897;50.812;4.430;2023-10-09T00:18:15;9.58;;;4.10;;
24799;SDS011;12897;50.812;4.430;2023-10-09T00:20:44;9.95;;;4.22;;
24799;SDS011;12897;50.812;4.430;2023-10-09T00:23:14;7.33;;;3.67;;
24799;SDS011;12897;50.812;4.430;2023-10-09T00:25:50;6.55;;;3.72;;
24799;SDS011;12897;50.812;4.430;2023-10-09T00:28:20;8.53;;;3.90;;
24799;SDS011;12897;50.812;4.430;2023-10-09T00:30:49;14.30;;;4.28;;
24799;SDS011;12897;50.812;4.430;2023-10-09T00:33:18;6.58;;;3.65;;
24799;SDS011;12897;50.812;4.430;2023-10-09T00:35:47;7.58;;;3.37;;
24799;SDS011;12897;50.812;4.430;2023-10-09T00:38:17;7.10;;;3.62;;
24799;SDS011;12897;50.812;4.430;2023-10-09T00:40:49;7.35;;;3.95;;
24799;SDS011;12897;50.812;4.430;2023-10-09T00:43:25;7.30;;;3.62;;
24799;SDS011;12897;50.812;4.430;2023-10-09T00:45:54;9.10;;;3.72;;
24799;SDS011;12897;50.812;4.430;2023-10-09T00:48:25;8.30;;;3.87;;
24799;SDS011;12897;50.812;4.430;2023-10-09T00:50:54;7.28;;;3.75;;
24799;SDS011;12897;50.812;4.430;2023-10-09T00:53:23;7.70;;;3.80;;
24799;SDS011;12897;50.812;4.430;2023-10-09T00:55:56;9.50;;;4.50;;
24799;SDS011;12897;50.812;4.430;2023-10-09T00:58:32;7.97;;;4.15;;
24799;SDS011;12897;50.812;4.430;2023-10-09T01:01:01;6.67;;;3.77;;
24799;SDS011;12897;50.812;4.430;2023-10-09T01:03:30;12.07;;;4.00;;
24799;SDS011;12897;50.812;4.430;2023-10-09T01:06:02;7.72;;;3.65;;
24799;SDS011;12897;50.812;4.430;2023-10-09T01:08:40;7.95;;;4.40;;
24799;SDS011;12897;50.812;4.430;2023-10-09T01:11:13;7.28;;;3.55;;
24799;SDS011;12897;50.812;4.430;2023-10-09T01:13:47;11.68;;;4.15;;
24799;SDS011;12897;50.812;4.430;2023-10-09T01:16:19;6.95;;;3.77;;
24799;SDS011;12897;50.812;4.430;2023-10-09T01:18:49;11.22;;;4.78;;
24799;SDS011;12897;50.812;4.430;2023-10-09T01:21:18;8.73;;;3.85;;
24799;SDS011;12897;50.812;4.430;2023-10-09T01:23:53;6.50;;;4.10;;
24799;SDS011;12897;50.812;4.430;2023-10-09T01:26:30;6.37;;;4.08;;
24799;SDS011;12897;50.812;4.430;2023-10-09T01:29:01;7.28;;;3.77;;
24799;SDS011;12897;50.812;4.430;2023-10-09T01:31:30;6.92;;;3.37;;
24799;SDS011;12897;50.812;4.430;2023-10-09T01:33:59;8.58;;;4.15;;
24799;SDS011;12897;50.812;4.430;2023-10-09T01:36:31;8.33;;;3.62;;
24799;SDS011;12897;50.812;4.430;2023-10-09T01:41:44;7.78;;;4.10;;
24799;SDS011;12897;50.812;4.430;2023-10-09T01:44:18;9.60;;;4.70;;
24799;SDS011;12897;50.812;4.430;2023-10-09T01:49:33;11.30;;;4.33;;
24799;SDS011;12897;50.812;4.430;2023-10-09T01:54:36;11.57;;;5.22;;
24799;SDS011;12897;50.812;4.430;2023-10-09T01:57:07;11.68;;;4.75;;
24799;SDS011;12897;50.812;4.430;2023-10-09T01:59:42;9.45;;;4.60;;
24799;SDS011;12897;50.812;4.430;2023-10-09T02:02:12;13.60;;;4.60;;
24799;SDS011;12897;50.812;4.430;2023-10-09T02:05:00;10.03;;;4.58;;
24799;SDS011;12897;50.812;4.430;2023-10-09T02:07:40;12.15;;;5.42;;
24799;SDS011;12897;50.812;4.430;2023-10-09T02:10:16;11.78;;;5.05;;
24799;SDS011;12897;50.812;4.430;2023-10-09T02:12:57;9.15;;;4.45;;
24799;SDS011;12897;50.812;4.430;2023-10-09T02:15:37;8.80;;;4.55;;
24799;SDS011;12897;50.812;4.430;2023-10-09T02:18:14;12.28;;;5.33;;
24799;SDS011;12897;50.812;4.430;2023-10-09T02:20:47;10.78;;;3.98;;
24799;SDS011;12897;50.812;4.430;2023-10-09T02:23:18;12.70;;;4.55;;
24799;SDS011;12897;50.812;4.430;2023-10-09T02:25:58;11.30;;;4.97;;
24799;SDS011;12897;50.812;4.430;2023-10-09T02:28:30;10.08;;;4.53;;
24799;SDS011;12897;50.812;4.430;2023-10-09T02:31:11;8.20;;;3.98;;
24799;SDS011;12897;50.812;4.430;2023-10-09T02:33:47;8.35;;;4.40;;
24799;SDS011;12897;50.812;4.430;2023-10-09T02:36:23;9.13;;;4.65;;
24799;SDS011;12897;50.812;4.430;2023-10-09T02:41:36;8.33;;;4.55;;
24799;SDS011;12897;50.812;4.430;2023-10-09T02:44:11;12.85;;;4.53;;
24799;SDS011;12897;50.812;4.430;2023-10-09T02:46:41;9.30;;;4.50;;
24799;SDS011;12897;50.812;4.430;2023-10-09T02:49:10;7.28;;;4.10;;
24799;SDS011;12897;50.812;4.430;2023-10-09T02:51:39;8.45;;;3.52;;
24799;SDS011;12897;50.812;4.430;2023-10-09T02:54:08;13.15;;;4.58;;
24799;SDS011;12897;50.812;4.430;2023-10-09T02:56:47;8.70;;;4.78;;
24799;SDS011;12897;50.812;4.430;2023-10-09T02:59:17;9.70;;;4.40;;
24799;SDS011;12897;50.812;4.430;2023-10-09T03:01:46;7.25;;;4.40;;
24799;SDS011;12897;50.812;4.430;2023-10-09T03:04:14;9.80;;;4.33;;
24799;SDS011;12897;50.812;4.430;2023-10-09T03:06:41;9.43;;;4.80;;
24799;SDS011;12897;50.812;4.430;2023-10-09T03:09:17;10.35;;;4.50;;
24799;SDS011;12897;50.812;4.430;2023-10-09T03:14:23;8.63;;;4.67;;
24799;SDS011;12897;50.812;4.430;2023-10-09T03:16:52;7.78;;;4.20;;
24799;SDS011;12897;50.812;4.430;2023-10-09T03:19:20;11.80;;;4.55;;
24799;SDS011;12897;50.812;4.430;2023-10-09T03:21:47;9.95;;;4.67;;
24799;SDS011;12897;50.812;4.430;2023-10-09T03:24:15;8.60;;;3.95;;
24799;SDS011;12897;50.812;4.430;2023-10-09T03:26:43;10.68;;;4.70;;
24799;SDS011;12897;50.812;4.430;2023-10-09T03:29:11;10.32;;;4.80;;
24799;SDS011;12897;50.812;4.430;2023-10-09T03:31:38;11.90;;;5.17;;
24799;SDS011;12897;50.812;4.430;2023-10-09T03:34:08;11.05;;;5.30;;
24799;SDS011;12897;50.812;4.430;2023-10-09T03:36:36;12.82;;;4.95;;
24799;SDS011;12897;50.812;4.430;2023-10-09T03:39:04;15.98;;;4.90;;
24799;SDS011;12897;50.812;4.430;2023-10-09T03:41:51;11.12;;;5.00;;
24799;SDS011;12897;50.812;4.430;2023-10-09T03:44:24;12.35;;;5.25;;
24799;SDS011;12897;50.812;4.430;2023-10-09T03:46:53;11.12;;;4.92;;
24799;SDS011;12897;50.812;4.430;2023-10-09T03:49:22;10.30;;;4.78;;
24799;SDS011;12897;50.812;4.430;2023-10-09T03:51:52;10.78;;;4.65;;
24799;SDS011;12897;50.812;4.430;2023-10-09T03:57:04;10.40;;;4.78;;
24799;SDS011;12897;50.812;4.430;2023-10-09T03:59:42;10.88;;;4.85;;
24799;SDS011;12897;50.812;4.430;2023-10-09T04:02:09;10.15;;;4.90;;
24799;SDS011;12897;50.812;4.430;2023-10-09T04:04:37;9.98;;;4.90;;
24799;SDS011;12897;50.812;4.430;2023-10-09T04:07:07;8.30;;;5.25;;
24799;SDS011;12897;50.812;4.430;2023-10-09T04:09:34;9.65;;;4.80;;
24799;SDS011;12897;50.812;4.430;2023-10-09T04:12:04;11.45;;;5.03;;
24799;SDS011;12897;50.812;4.430;2023-10-09T04:14:43;10.68;;;5.10;;
24799;SDS011;12897;50.812;4.430;2023-10-09T04:17:15;12.20;;;5.25;;
24799;SDS011;12897;50.812;4.430;2023-10-09T04:19:50;9.20;;;4.47;;
24799;SDS011;12897;50.812;4.430;2023-10-09T04:22:36;9.83;;;4.83;;
24799;SDS011;12897;50.812;4.430;2023-10-09T04:25:20;9.70;;;5.28;;
24799;SDS011;12897;50.812;4.430;2023-10-09T04:27:55;11.18;;;5.22;;
24799;SDS011;12897;50.812;4.430;2023-10-09T04:30:38;11.63;;;6.05;;
24799;SDS011;12897;50.812;4.430;2023-10-09T04:33:09;11.65;;;5.22;;
24799;SDS011;12897;50.812;4.430;2023-10-09T04:36:03;12.25;;;5.25;;
24799;SDS011;12897;50.812;4.430;2023-10-09T04:38:43;11.03;;;5.25;;
24799;SDS011;12897;50.812;4.430;2023-10-09T04:41:29;11.55;;;5.55;;
24799;SDS011;12897;50.812;4.430;2023-10-09T04:44:07;15.15;;;5.83;;
24799;SDS011;12897;50.812;4.430;2023-10-09T04:46:51;14.98;;;5.55;;
24799;SDS011;12897;50.812;4.430;2023-10-09T04:49:38;10.43;;;5.08;;
24799;SDS011;12897;50.812;4.430;2023-10-09T04:52:16;12.63;;;5.90;;
24799;SDS011;12897;50.812;4.430;2023-10-09T04:54:46;11.38;;;5.37;;
24799;SDS011;12897;50.812;4.430;2023-10-09T04:57:30;10.50;;;5.42;;
24799;SDS011;12897;50.812;4.430;2023-10-09T04:59:59;11.65;;;5.60;;
24799;SDS011;12897;50.812;4.430;2023-10-09T05:02:29;9.75;;;5.15;;
24799;SDS011;12897;50.812;4.430;2023-10-09T05:04:58;15.38;;;6.70;;
24799;SDS011;12897;50.812;4.430;2023-10-09T05:07:30;13.30;;;5.85;;
24799;SDS011;12897;50.812;4.430;2023-10-09T05:10:15;12.60;;;5.80;;
24799;SDS011;12897;50.812;4.430;2023-10-09T05:12:43;16.80;;;6.40;;
24799;SDS011;12897;50.812;4.430;2023-10-09T05:15:15;12.70;;;6.15;;
24799;SDS011;12897;50.812;4.430;2023-10-09T05:17:44;15.65;;;5.50;;
24799;SDS011;12897;50.812;4.430;2023-10-09T05:20:13;17.70;;;5.90;;
24799;SDS011;12897;50.812;4.430;2023-10-09T05:22:52;11.93;;;6.15;;
24799;SDS011;12897;50.812;4.430;2023-10-09T05:25:21;17.67;;;6.12;;
24799;SDS011;12897;50.812;4.430;2023-10-09T05:27:50;12.10;;;5.33;;
24799;SDS011;12897;50.812;4.430;2023-10-09T05:30:17;13.88;;;6.12;;
24799;SDS011;12897;50.812;4.430;2023-10-09T05:32:51;14.30;;;6.50;;
24799;SDS011;12897;50.812;4.430;2023-10-09T05:35:30;12.80;;;6.03;;
24799;SDS011;12897;50.812;4.430;2023-10-09T05:37:58;13.22;;;5.97;;
24799;SDS011;12897;50.812;4.430;2023-10-09T05:40:29;16.65;;;7.22;;
24799;SDS011;12897;50.812;4.430;2023-10-09T05:43:01;13.08;;;6.58;;
24799;SDS011;12897;50.812;4.430;2023-10-09T05:45:30;11.33;;;6.10;;
24799;SDS011;12897;50.812;4.430;2023-10-09T05:48:16;15.55;;;7.87;;
24799;SDS011;12897;50.812;4.430;2023-10-09T05:50:45;16.80;;;6.90;;
24799;SDS011;12897;50.812;4.430;2023-10-09T05:53:30;11.35;;;6.20;;
24799;SDS011;12897;50.812;4.430;2023-10-09T05:56:11;14.55;;;7.10;;
24799;SDS011;12897;50.812;4.430;2023-10-09T05:58:56;12.90;;;6.25;;
24799;SDS011;12897;50.812;4.430;2023-10-09T06:01:40;18.45;;;6.87;;
24799;SDS011;12897;50.812;4.430;2023-10-09T06:04:18;16.48;;;7.00;;
24799;SDS011;12897;50.812;4.430;2023-10-09T06:06:48;13.78;;;6.40;;
24799;SDS011;12897;50.812;4.430;2023-10-09T06:09:26;13.30;;;6.40;;
24799;SDS011;12897;50.812;4.430;2023-10-09T06:12:11;13.62;;;5.62;;
24799;SDS011;12897;50.812;4.430;2023-10-09T06:14:58;17.80;;;6.67;;
24799;SDS011;12897;50.812;4.430;2023-10-09T06:17:27;17.70;;;7.00;;
24799;SDS011;12897;50.812;4.430;2023-10-09T06:19:57;13.28;;;6.87;;
24799;SDS011;12897;50.812;4.430;2023-10-09T06:22:27;13.62;;;5.87;;
24799;SDS011;12897;50.812;4.430;2023-10-09T06:24:58;17.00;;;8.20;;
24799;SDS011;12897;50.812;4.430;2023-10-09T06:27:27;11.88;;;6.60;;
24799;SDS011;12897;50.812;4.430;2023-10-09T06:29:59;16.00;;;6.33;;
24799;SDS011;12897;50.812;4.430;2023-10-09T06:32:41;17.27;;;6.90;;
24799;SDS011;12897;50.812;4.430;2023-10-09T06:35:20;10.78;;;6.03;;
24799;SDS011;12897;50.812;4.430;2023-10-09T06:37:51;14.03;;;6.65;;
24799;SDS011;12897;50.812;4.430;2023-10-09T06:40:36;13.90;;;6.70;;
24799;SDS011;12897;50.812;4.430;2023-10-09T06:43:06;12.63;;;6.78;;
24799;SDS011;12897;50.812;4.430;2023-10-09T06:45:43;14.50;;;6.95;;
24799;SDS011;12897;50.812;4.430;2023-10-09T06:48:12;13.22;;;6.85;;
24799;SDS011;12897;50.812;4.430;2023-10-09T06:51:01;17.00;;;6.58;;
24799;SDS011;12897;50.812;4.430;2023-10-09T06:53:50;15.70;;;6.45;;
24799;SDS011;12897;50.812;4.430;2023-10-09T06:56:31;15.30;;;6.62;;
24799;SDS011;12897;50.812;4.430;2023-10-09T06:59:04;12.80;;;6.58;;
24799;SDS011;12897;50.812;4.430;2023-10-09T07:01:49;20.82;;;6.92;;
24799;SDS011;12897;50.812;4.430;2023-10-09T07:04:37;16.00;;;7.60;;
24799;SDS011;12897;50.812;4.430;2023-10-09T07:07:06;15.53;;;7.28;;
24799;SDS011;12897;50.812;4.430;2023-10-09T07:09:36;14.58;;;7.10;;
24799;SDS011;12897;50.812;4.430;2023-10-09T07:12:11;11.90;;;6.35;;
24799;SDS011;12897;50.812;4.430;2023-10-09T07:14:49;15.88;;;8.55;;
24799;SDS011;12897;50.812;4.430;2023-10-09T07:17:18;16.50;;;7.05;;
24799;SDS011;12897;50.812;4.430;2023-10-09T07:19:51;13.60;;;7.25;;
24799;SDS011;12897;50.812;4.430;2023-10-09T07:22:25;13.00;;;6.60;;
24799;SDS011;12897;50.812;4.430;2023-10-09T07:24:55;16.52;;;7.25;;
24799;SDS011;12897;50.812;4.430;2023-10-09T07:27:24;16.50;;;7.00;;
24799;SDS011;12897;50.812;4.430;2023-10-09T07:30:11;14.33;;;7.20;;
24799;SDS011;12897;50.812;4.430;2023-10-09T07:33:08;14.00;;;6.60;;
24799;SDS011;12897;50.812;4.430;2023-10-09T07:35:47;21.40;;;7.15;;
24799;SDS011;12897;50.812;4.430;2023-10-09T07:38:25;14.55;;;7.00;;
24799;SDS011;12897;50.812;4.430;2023-10-09T07:40:56;16.20;;;7.65;;
24799;SDS011;12897;50.812;4.430;2023-10-09T07:46:12;17.40;;;8.03;;
24799;SDS011;12897;50.812;4.430;2023-10-09T07:48:56;16.65;;;7.90;;
24799;SDS011;12897;50.812;4.430;2023-10-09T07:51:26;14.28;;;7.33;;
24799;SDS011;12897;50.812;4.430;2023-10-09T07:53:57;15.72;;;7.87;;
24799;SDS011;12897;50.812;4.430;2023-10-09T07:56:35;14.15;;;8.00;;
24799;SDS011;12897;50.812;4.430;2023-10-09T07:59:15;18.87;;;7.03;;
24799;SDS011;12897;50.812;4.430;2023-10-09T08:01:47;12.70;;;6.80;;
24799;SDS011;12897;50.812;4.430;2023-10-09T08:04:31;13.35;;;7.03;;
24799;SDS011;12897;50.812;4.430;2023-10-09T08:07:07;13.28;;;7.35;;
24799;SDS011;12897;50.812;4.430;2023-10-09T08:09:35;16.90;;;8.70;;
24799;SDS011;12897;50.812;4.430;2023-10-09T08:12:16;18.95;;;7.50;;
24799;SDS011;12897;50.812;4.430;2023-10-09T08:15:03;14.25;;;7.58;;
24799;SDS011;12897;50.812;4.430;2023-10-09T08:17:50;13.20;;;7.55;;
24799;SDS011;12897;50.812;4.430;2023-10-09T08:20:38;14.95;;;7.25;;
24799;SDS011;12897;50.812;4.430;2023-10-09T08:23:20;15.72;;;7.60;;
24799;SDS011;12897;50.812;4.430;2023-10-09T08:26:04;14.43;;;7.37;;
24799;SDS011;12897;50.812;4.430;2023-10-09T08:28:43;15.65;;;6.83;;
24799;SDS011;12897;50.812;4.430;2023-10-09T08:31:16;15.40;;;7.90;;
24799;SDS011;12897;50.812;4.430;2023-10-09T08:33:52;15.05;;;8.03;;
24799;SDS011;12897;50.812;4.430;2023-10-09T08:36:27;13.93;;;7.03;;
24799;SDS011;12897;50.812;4.430;2023-10-09T08:38:57;13.90;;;7.25;;
24799;SDS011;12897;50.812;4.430;2023-10-09T08:41:26;23.60;;;7.78;;
24799;SDS011;12897;50.812;4.430;2023-10-09T08:43:56;12.40;;;6.80;;
24799;SDS011;12897;50.812;4.430;2023-10-09T08:46:25;14.40;;;7.28;;
24799;SDS011;12897;50.812;4.430;2023-10-09T08:48:59;14.93;;;6.95;;
24799;SDS011;12897;50.812;4.430;2023-10-09T08:51:30;13.58;;;7.25;;
24799;SDS011;12897;50.812;4.430;2023-10-09T08:54:01;19.15;;;6.70;;
24799;SDS011;12897;50.812;4.430;2023-10-09T08:56:32;14.83;;;6.95;;
24799;SDS011;12897;50.812;4.430;2023-10-09T08:59:17;16.25;;;7.40;;
24799;SDS011;12897;50.812;4.430;2023-10-09T09:01:46;15.33;;;7.63;;
24799;SDS011;12897;50.812;4.430;2023-10-09T09:04:37;16.60;;;7.42;;
24799;SDS011;12897;50.812;4.430;2023-10-09T09:07:06;13.88;;;7.25;;
24799;SDS011;12897;50.812;4.430;2023-10-09T09:09:56;13.25;;;7.08;;
24799;SDS011;12897;50.812;4.430;2023-10-09T09:12:25;13.75;;;7.03;;
24799;SDS011;12897;50.812;4.430;2023-10-09T09:17:23;14.23;;;6.47;;
24799;SDS011;12897;50.812;4.430;2023-10-09T09:19:55;13.55;;;6.72;;
24799;SDS011;12897;50.812;4.430;2023-10-09T09:22:24;15.58;;;7.35;;
24799;SDS011;12897;50.812;4.430;2023-10-09T09:24:59;13.60;;;6.70;;
24799;SDS011;12897;50.812;4.430;2023-10-09T09:27:45;16.70;;;7.20;;
24799;SDS011;12897;50.812;4.430;2023-10-09T09:30:23;12.45;;;7.08;;
24799;SDS011;12897;50.812;4.430;2023-10-09T09:33:16;16.25;;;6.55;;
24799;SDS011;12897;50.812;4.430;2023-10-09T09:36:00;11.57;;;6.42;;
24799;SDS011;12897;50.812;4.430;2023-10-09T09:38:30;20.33;;;7.17;;
24799;SDS011;12897;50.812;4.430;2023-10-09T09:41:08;16.00;;;7.15;;
24799;SDS011;12897;50.812;4.430;2023-10-09T09:43:37;16.00;;;6.47;;
24799;SDS011;12897;50.812;4.430;2023-10-09T09:46:07;17.07;;;7.70;;
24799;SDS011;12897;50.812;4.430;2023-10-09T09:48:37;17.57;;;7.58;;
24799;SDS011;12897;50.812;4.430;2023-10-09T09:51:05;17.10;;;7.20;;
24799;SDS011;12897;50.812;4.430;2023-10-09T09:53:34;15.53;;;7.23;;
24799;SDS011;12897;50.812;4.430;2023-10-09T09:56:02;14.00;;;7.28;;
24799;SDS011;12897;50.812;4.430;2023-10-09T09:58:31;13.38;;;7.87;;
24799;SDS011;12897;50.812;4.430;2023-10-09T10:03:49;11.95;;;6.90;;
24799;SDS011;12897;50.812;4.430;2023-10-09T10:06:19;16.37;;;7.28;;
24799;SDS011;12897;50.812;4.430;2023-10-09T10:08:48;14.80;;;6.78;;
24799;SDS011;12897;50.812;4.430;2023-10-09T10:14:11;12.47;;;6.92;;
24799;SDS011;12897;50.812;4.430;2023-10-09T10:16:59;13.83;;;7.10;;
24799;SDS011;12897;50.812;4.430;2023-10-09T10:22:45;13.32;;;6.65;;
24799;SDS011;12897;50.812;4.430;2023-10-09T10:25:32;13.05;;;6.17;;
24799;SDS011;12897;50.812;4.430;2023-10-09T10:30:55;12.90;;;7.28;;
24799;SDS011;12897;50.812;4.430;2023-10-09T10:33:24;16.65;;;7.25;;
24799;SDS011;12897;50.812;4.430;2023-10-09T10:35:54;12.65;;;6.90;;
24799;SDS011;12897;50.812;4.430;2023-10-09T10:38:23;15.83;;;7.60;;
24799;SDS011;12897;50.812;4.430;2023-10-09T10:41:08;16.07;;;6.80;;
24799;SDS011;12897;50.812;4.430;2023-10-09T10:43:42;13.90;;;7.03;;
24799;SDS011;12897;50.812;4.430;2023-10-09T10:46:18;15.48;;;7.28;;
24799;SDS011;12897;50.812;4.430;2023-10-09T10:48:50;13.45;;;6.65;;
24799;SDS011;12897;50.812;4.430;2023-10-09T10:51:20;13.60;;;7.05;;
24799;SDS011;12897;50.812;4.430;2023-10-09T10:53:51;15.00;;;6.60;;
24799;SDS011;12897;50.812;4.430;2023-10-09T10:56:23;16.52;;;7.67;;
24799;SDS011;12897;50.812;4.430;2023-10-09T10:58:53;15.70;;;7.00;;
24799;SDS011;12897;50.812;4.430;2023-10-09T11:01:32;14.20;;;6.67;;
24799;SDS011;12897;50.812;4.430;2023-10-09T11:04:10;14.30;;;6.47;;
24799;SDS011;12897;50.812;4.430;2023-10-09T11:06:34;12.88;;;6.67;;
24799;SDS011;12897;50.812;4.430;2023-10-09T11:09:03;11.53;;;6.60;;
24799;SDS011;12897;50.812;4.430;2023-10-09T11:11:37;13.75;;;6.75;;
24799;SDS011;12897;50.812;4.430;2023-10-09T11:14:14;18.23;;;7.40;;
24799;SDS011;12897;50.812;4.430;2023-10-09T11:16:41;14.05;;;6.72;;
24799;SDS011;12897;50.812;4.430;2023-10-09T11:19:12;13.75;;;6.22;;
24799;SDS011;12897;50.812;4.430;2023-10-09T11:21:42;17.10;;;6.75;;
24799;SDS011;12897;50.812;4.430;2023-10-09T11:24:10;18.30;;;7.05;;
24799;SDS011;12897;50.812;4.430;2023-10-09T11:29:21;11.83;;;6.12;;
24799;SDS011;12897;50.812;4.430;2023-10-09T11:32:01;16.85;;;7.03;;
24799;SDS011;12897;50.812;4.430;2023-10-09T11:34:33;13.10;;;5.85;;
24799;SDS011;12897;50.812;4.430;2023-10-09T11:37:18;15.78;;;6.70;;
24799;SDS011;12897;50.812;4.430;2023-10-09T11:39:41;14.00;;;6.62;;
24799;SDS011;12897;50.812;4.430;2023-10-09T11:42:14;12.30;;;6.92;;
24799;SDS011;12897;50.812;4.430;2023-10-09T11:44:42;13.18;;;6.95;;
24799;SDS011;12897;50.812;4.430;2023-10-09T11:47:14;14.95;;;6.50;;
24799;SDS011;12897;50.812;4.430;2023-10-09T11:49:52;11.35;;;6.08;;
24799;SDS011;12897;50.812;4.430;2023-10-09T11:52:18;12.58;;;6.22;;
24799;SDS011;12897;50.812;4.430;2023-10-09T11:55:03;15.93;;;6.58;;
24799;SDS011;12897;50.812;4.430;2023-10-09T11:57:33;12.40;;;6.58;;
24799;SDS011;12897;50.812;4.430;2023-10-09T12:00:04;16.97;;;6.92;;
24799;SDS011;12897;50.812;4.430;2023-10-09T12:02:38;8.90;;;5.55;;
24799;SDS011;12897;50.812;4.430;2023-10-09T12:05:08;12.20;;;6.10;;
24799;SDS011;12897;50.812;4.430;2023-10-09T12:07:35;9.08;;;5.37;;
24799;SDS011;12897;50.812;4.430;2023-10-09T12:10:04;11.93;;;6.58;;
24799;SDS011;12897;50.812;4.430;2023-10-09T12:12:33;12.58;;;6.72;;
24799;SDS011;12897;50.812;4.430;2023-10-09T12:15:01;12.33;;;6.05;;
24799;SDS011;12897;50.812;4.430;2023-10-09T12:17:30;13.20;;;6.10;;
24799;SDS011;12897;50.812;4.430;2023-10-09T12:19:58;11.40;;;6.17;;
24799;SDS011;12897;50.812;4.430;2023-10-09T12:22:26;17.75;;;6.85;;
24799;SDS011;12897;50.812;4.430;2023-10-09T12:24:53;14.70;;;6.40;;
24799;SDS011;12897;50.812;4.430;2023-10-09T12:27:23;11.43;;;5.80;;
24799;SDS011;12897;50.812;4.430;2023-10-09T12:29:50;13.98;;;6.75;;
24799;SDS011;12897;50.812;4.430;2023-10-09T12:32:18;12.47;;;6.72;;
24799;SDS011;12897;50.812;4.430;2023-10-09T12:34:47;14.23;;;7.33;;
24799;SDS011;12897;50.812;4.430;2023-10-09T12:37:16;15.83;;;6.47;;
24799;SDS011;12897;50.812;4.430;2023-10-09T12:39:45;15.13;;;6.28;;
24799;SDS011;12897;50.812;4.430;2023-10-09T12:42:13;12.50;;;6.45;;
24799;SDS011;12897;50.812;4.430;2023-10-09T12:44:43;16.17;;;7.00;;
24799;SDS011;12897;50.812;4.430;2023-10-09T12:47:11;15.00;;;7.42;;
24799;SDS011;12897;50.812;4.430;2023-10-09T12:49:38;13.15;;;6.67;;
24799;SDS011;12897;50.812;4.430;2023-10-09T12:52:08;11.73;;;6.22;;
24799;SDS011;12897;50.812;4.430;2023-10-09T12:54:44;14.55;;;6.62;;
24799;SDS011;12897;50.812;4.430;2023-10-09T12:57:12;12.35;;;5.97;;
24799;SDS011;12897;50.812;4.430;2023-10-09T12:59:40;20.30;;;6.33;;
24799;SDS011;12897;50.812;4.430;2023-10-09T13:02:15;11.73;;;6.40;;
24799;SDS011;12897;50.812;4.430;2023-10-09T13:04:44;16.50;;;6.50;;
24799;SDS011;12897;50.812;4.430;2023-10-09T13:07:12;14.45;;;6.72;;
24799;SDS011;12897;50.812;4.430;2023-10-09T13:09:41;14.50;;;6.70;;
24799;SDS011;12897;50.812;4.430;2023-10-09T13:12:09;19.42;;;7.80;;
24799;SDS011;12897;50.812;4.430;2023-10-09T13:14:41;20.05;;;7.80;;
24799;SDS011;12897;50.812;4.430;2023-10-09T13:17:09;13.68;;;6.70;;
24799;SDS011;12897;50.812;4.430;2023-10-09T13:19:36;17.85;;;7.65;;
24799;SDS011;12897;50.812;4.430;2023-10-09T13:22:04;15.53;;;7.37;;
24799;SDS011;12897;50.812;4.430;2023-10-09T13:24:33;15.30;;;7.58;;
24799;SDS011;12897;50.812;4.430;2023-10-09T13:27:10;24.77;;;10.18;;
24799;SDS011;12897;50.812;4.430;2023-10-09T13:29:42;22.42;;;9.08;;
24799;SDS011;12897;50.812;4.430;2023-10-09T13:34:44;11.40;;;6.60;;
24799;SDS011;12897;50.812;4.430;2023-10-09T13:37:12;12.95;;;6.75;;
24799;SDS011;12897;50.812;4.430;2023-10-09T13:39:40;16.85;;;7.25;;
24799;SDS011;12897;50.812;4.430;2023-10-09T13:42:21;20.05;;;6.45;;
24799;SDS011;12897;50.812;4.430;2023-10-09T13:44:50;12.28;;;6.50;;
24799;SDS011;12897;50.812;4.430;2023-10-09T13:47:20;17.27;;;8.00;;
24799;SDS011;12897;50.812;4.430;2023-10-09T13:49:49;16.80;;;7.30;;
24799;SDS011;12897;50.812;4.430;2023-10-09T13:52:18;17.15;;;6.75;;
24799;SDS011;12897;50.812;4.430;2023-10-09T13:54:47;17.75;;;6.92;;
24799;SDS011;12897;50.812;4.430;2023-10-09T13:57:16;11.00;;;6.08;;
24799;SDS011;12897;50.812;4.430;2023-10-09T13:59:45;15.30;;;6.08;;
24799;SDS011;12897;50.812;4.430;2023-10-09T14:02:17;12.20;;;5.95;;
24799;SDS011;12897;50.812;4.430;2023-10-09T14:04:46;15.05;;;7.00;;
24799;SDS011;12897;50.812;4.430;2023-10-09T14:07:14;15.35;;;6.72;;
24799;SDS011;12897;50.812;4.430;2023-10-09T14:09:46;15.58;;;7.37;;
24799;SDS011;12897;50.812;4.430;2023-10-09T14:12:24;15.25;;;7.05;;
24799;SDS011;12897;50.812;4.430;2023-10-09T14:14:53;13.20;;;7.00;;
24799;SDS011;12897;50.812;4.430;2023-10-09T14:17:21;20.60;;;7.47;;
24799;SDS011;12897;50.812;4.430;2023-10-09T14:19:52;12.90;;;6.45;;
24799;SDS011;12897;50.812;4.430;2023-10-09T14:22:21;16.73;;;8.05;;
24799;SDS011;12897;50.812;4.430;2023-10-09T14:24:52;13.62;;;7.05;;
24799;SDS011;12897;50.812;4.430;2023-10-09T14:27:22;15.68;;;7.85;;
24799;SDS011;12897;50.812;4.430;2023-10-09T14:29:56;13.20;;;7.80;;
24799;SDS011;12897;50.812;4.430;2023-10-09T14:32:26;19.40;;;7.35;;
24799;SDS011;12897;50.812;4.430;2023-10-09T14:34:58;16.50;;;7.50;;
24799;SDS011;12897;50.812;4.430;2023-10-09T14:37:30;14.40;;;7.65;;
24799;SDS011;12897;50.812;4.430;2023-10-09T14:39:59;13.50;;;6.67;;
24799;SDS011;12897;50.812;4.430;2023-10-09T14:42:27;16.43;;;7.30;;
24799;SDS011;12897;50.812;4.430;2023-10-09T14:44:56;19.37;;;7.83;;
24799;SDS011;12897;50.812;4.430;2023-10-09T14:47:23;15.55;;;7.20;;
24799;SDS011;12897;50.812;4.430;2023-10-09T14:49:51;19.65;;;7.75;;
24799;SDS011;12897;50.812;4.430;2023-10-09T14:52:22;12.55;;;6.62;;
24799;SDS011;12897;50.812;4.430;2023-10-09T14:54:51;11.88;;;6.80;;
24799;SDS011;12897;50.812;4.430;2023-10-09T14:57:19;14.68;;;7.53;;
24799;SDS011;12897;50.812;4.430;2023-10-09T14:59:47;13.62;;;6.75;;
24799;SDS011;12897;50.812;4.430;2023-10-09T15:02:15;16.62;;;7.45;;
24799;SDS011;12897;50.812;4.430;2023-10-09T15:04:49;20.25;;;7.67;;
24799;SDS011;12897;50.812;4.430;2023-10-09T15:07:22;17.85;;;7.20;;
24799;SDS011;12897;50.812;4.430;2023-10-09T15:12:31;13.45;;;6.60;;
24799;SDS011;12897;50.812;4.430;2023-10-09T15:15:01;11.83;;;5.97;;
24799;SDS011;12897;50.812;4.430;2023-10-09T15:17:29;11.83;;;6.67;;
24799;SDS011;12897;50.812;4.430;2023-10-09T15:19:58;12.37;;;6.30;;
24799;SDS011;12897;50.812;4.430;2023-10-09T15:22:30;13.35;;;6.87;;
24799;SDS011;12897;50.812;4.430;2023-10-09T15:24:59;12.63;;;6.60;;
24799;SDS011;12897;50.812;4.430;2023-10-09T15:27:27;15.95;;;6.85;;
24799;SDS011;12897;50.812;4.430;2023-10-09T15:29:54;12.73;;;6.33;;
24799;SDS011;12897;50.812;4.430;2023-10-09T15:32:25;13.20;;;6.58;;
24799;SDS011;12897;50.812;4.430;2023-10-09T15:35:03;13.38;;;7.10;;
24799;SDS011;12897;50.812;4.430;2023-10-09T15:37:33;19.50;;;7.35;;
24799;SDS011;12897;50.812;4.430;2023-10-09T15:40:00;23.83;;;10.98;;
24799;SDS011;12897;50.812;4.430;2023-10-09T15:42:31;15.10;;;6.80;;
24799;SDS011;12897;50.812;4.430;2023-10-09T15:44:59;14.38;;;5.87;;
24799;SDS011;12897;50.812;4.430;2023-10-09T15:47:27;14.10;;;6.20;;
24799;SDS011;12897;50.812;4.430;2023-10-09T15:49:55;12.63;;;6.45;;